sensor_id;sensor_type;location;lat;lon;timestamp;pressure;altitude;pressure_sealevel;temperature;humidity
45253;BME280;63171;50.520;30.486;2022-10-16T00:02:26;101159.41;;;7.77;58.11
45253;BME280;63171;50.520;30.486;2022-10-16T00:03:17;101160.06;;;7.83;58.41
45253;BME280;63171;50.520;30.486;2022-10-16T00:04:07;101165.06;;;7.91;58.28
45253;BME280;63171;50.520;30.486;2022-10-16T00:04:57;101161.34;;;7.98;58.52
45253;BME280;63171;50.520;30.486;2022-10-16T00:05:48;101154.75;;;7.86;58.16
45253;BME280;63171;50.520;30.486;2022-10-16T00:06:39;101153.63;;;7.95;58.42
45253;BME280;63171;50.520;30.486;2022-10-16T00:07:29;101159.84;;;7.91;58.44
45253;BME280;63171;50.520;30.486;2022-10-16T00:08:19;101161.31;;;7.99;58.43
45253;BME280;63171;50.520;30.486;2022-10-16T00:09:09;101162.13;;;8.02;58.25
45253;BME280;63171;50.520;30.486;2022-10-16T00:10:00;101159.59;;;7.98;58.38
45253;BME280;63171;50.520;30.486;2022-10-16T00:10:50;101161.78;;;7.84;58.21
45253;BME280;63171;50.520;30.486;2022-10-16T00:11:41;101160.34;;;7.74;58.18
45253;BME280;63171;50.520;30.486;2022-10-16T00:12:31;101154.94;;;7.80;58.35
45253;BME280;63171;50.520;30.486;2022-10-16T00:13:21;101154.75;;;7.86;58.49
45253;BME280;63171;50.520;30.486;2022-10-16T00:14:13;101164.66;;;8.05;58.66
45253;BME280;63171;50.520;30.486;2022-10-16T00:15:07;101151.28;;;8.15;58.57
45253;BME280;63171;50.520;30.486;2022-10-16T00:15:58;101152.13;;;8.16;58.67
45253;BME280;63171;50.520;30.486;2022-10-16T00:16:49;101166.34;;;8.06;58.40
45253;BME280;63171;50.520;30.486;2022-10-16T00:17:39;101160.03;;;7.85;58.35
45253;BME280;63171;50.520;30.486;2022-10-16T00:18:30;101163.84;;;7.75;58.41
45253;BME280;63171;50.520;30.486;2022-10-16T00:19:20;101157.56;;;7.80;58.45
45253;BME280;63171;50.520;30.486;2022-10-16T00:20:10;101154.22;;;8.05;58.55
45253;BME280;63171;50.520;30.486;2022-10-16T00:21:05;101155.50;;;7.91;58.47
45253;BME280;63171;50.520;30.486;2022-10-16T00:21:56;101152.03;;;7.91;58.55
45253;BME280;63171;50.520;30.486;2022-10-16T00:22:46;101150.28;;;7.91;58.53
45253;BME280;63171;50.520;30.486;2022-10-16T00:23:37;101154.63;;;7.91;58.62
45253;BME280;63171;50.520;30.486;2022-10-16T00:24:27;101158.94;;;7.92;58.49
45253;BME280;63171;50.520;30.486;2022-10-16T00:25:18;101157.47;;;7.83;58.46
45253;BME280;63171;50.520;30.486;2022-10-16T00:26:10;101149.50;;;7.88;58.53
45253;BME280;63171;50.520;30.486;2022-10-16T00:27:02;101157.47;;;7.83;58.39
45253;BME280;63171;50.520;30.486;2022-10-16T00:27:52;101163.16;;;7.96;58.62
45253;BME280;63171;50.520;30.486;2022-10-16T00:28:45;101155.06;;;8.05;58.71
45253;BME280;63171;50.520;30.486;2022-10-16T00:29:34;101159.75;;;7.94;58.74
45253;BME280;63171;50.520;30.486;2022-10-16T00:30:27;101160.59;;;7.94;58.82
45253;BME280;63171;50.520;30.486;2022-10-16T00:31:19;101168.38;;;7.96;58.57
45253;BME280;63171;50.520;30.486;2022-10-16T00:32:09;101159.69;;;7.95;58.53
45253;BME280;63171;50.520;30.486;2022-10-16T00:32:59;101163.00;;;8.02;58.86
45253;BME280;63171;50.520;30.486;2022-10-16T00:33:50;101167.19;;;8.06;59.10
45253;BME280;63171;50.520;30.486;2022-10-16T00:34:40;101159.06;;;7.87;58.66
45253;BME280;63171;50.520;30.486;2022-10-16T00:35:31;101169.44;;;7.90;58.67
45253;BME280;63171;50.520;30.486;2022-10-16T00:36:23;101160.41;;;8.00;58.84
45253;BME280;63171;50.520;30.486;2022-10-16T00:37:14;101158.94;;;7.92;58.83
45253;BME280;63171;50.520;30.486;2022-10-16T00:38:04;101157.78;;;8.00;58.94
45253;BME280;63171;50.520;30.486;2022-10-16T00:38:57;101170.44;;;7.85;58.62
45253;BME280;63171;50.520;30.486;2022-10-16T00:39:49;101168.47;;;7.93;58.78
45253;BME280;63171;50.520;30.486;2022-10-16T00:40:39;101164.91;;;7.95;58.72
45253;BME280;63171;50.520;30.486;2022-10-16T00:41:29;101165.53;;;8.04;58.66
45253;BME280;63171;50.520;30.486;2022-10-16T00:42:20;101164.38;;;8.12;58.96
45253;BME280;63171;50.520;30.486;2022-10-16T00:44:44;101169.50;;;7.87;58.73
45253;BME280;63171;50.520;30.486;2022-10-16T00:45:36;101163.78;;;7.76;58.63
45253;BME280;63171;50.520;30.486;2022-10-16T00:46:29;101170.34;;;7.88;59.01
45253;BME280;63171;50.520;30.486;2022-10-16T00:47:22;101167.00;;;7.84;58.91
45253;BME280;63171;50.520;30.486;2022-10-16T00:48:15;101170.94;;;7.97;59.06
45253;BME280;63171;50.520;30.486;2022-10-16T00:49:07;101171.03;;;7.94;59.00
45253;BME280;63171;50.520;30.486;2022-10-16T00:50:02;101171.25;;;7.87;59.00
45253;BME280;63171;50.520;30.486;2022-10-16T00:50:55;101170.09;;;7.97;59.06
45253;BME280;63171;50.520;30.486;2022-10-16T00:51:48;101171.75;;;7.99;59.22
45253;BME280;63171;50.520;30.486;2022-10-16T00:52:41;101175.25;;;7.98;59.18
45253;BME280;63171;50.520;30.486;2022-10-16T00:53:34;101170.03;;;7.98;59.15
45253;BME280;63171;50.520;30.486;2022-10-16T00:54:27;101177.78;;;8.02;59.08
45253;BME280;63171;50.520;30.486;2022-10-16T00:55:19;101176.78;;;8.06;59.21
45253;BME280;63171;50.520;30.486;2022-10-16T00:56:09;101178.97;;;7.91;58.97
45253;BME280;63171;50.520;30.486;2022-10-16T00:57:03;101179.47;;;7.75;58.99
45253;BME280;63171;50.520;30.486;2022-10-16T00:57:53;101179.53;;;7.71;59.09
45253;BME280;63171;50.520;30.486;2022-10-16T00:58:44;101179.13;;;7.56;58.94
45253;BME280;63171;50.520;30.486;2022-10-16T00:59:37;101174.97;;;7.50;59.18
45253;BME280;63171;50.520;30.486;2022-10-16T01:00:28;101181.66;;;7.59;59.04
45253;BME280;63171;50.520;30.486;2022-10-16T01:01:20;101185.81;;;7.66;59.31
45253;BME280;63171;50.520;30.486;2022-10-16T01:02:12;101183.94;;;7.69;59.42
45253;BME280;63171;50.520;30.486;2022-10-16T01:04:10;101187.31;;;7.73;59.38
45253;BME280;63171;50.520;30.486;2022-10-16T01:05:01;101183.84;;;7.72;59.41
45253;BME280;63171;50.520;30.486;2022-10-16T01:05:59;101182.69;;;7.83;59.74
45253;BME280;63171;50.520;30.486;2022-10-16T01:07:03;101185.19;;;7.86;59.72
45253;BME280;63171;50.520;30.486;2022-10-16T01:07:59;101181.03;;;7.80;59.73
45253;BME280;63171;50.520;30.486;2022-10-16T01:08:59;101184.28;;;7.87;59.81
45253;BME280;63171;50.520;30.486;2022-10-16T01:09:57;101181.69;;;7.87;59.79
45253;BME280;63171;50.520;30.486;2022-10-16T01:10:57;101190.25;;;7.92;59.84
45253;BME280;63171;50.520;30.486;2022-10-16T01:11:57;101186.56;;;7.69;59.74
45253;BME280;63171;50.520;30.486;2022-10-16T01:12:56;101183.19;;;7.66;59.97
45253;BME280;63171;50.520;30.486;2022-10-16T01:13:51;101185.19;;;7.86;59.88
45253;BME280;63171;50.520;30.486;2022-10-16T01:14:48;101185.09;;;7.90;60.04
45253;BME280;63171;50.520;30.486;2022-10-16T01:15:47;101188.50;;;7.92;59.79
45253;BME280;63171;50.520;30.486;2022-10-16T01:16:45;101188.81;;;7.82;60.04
45253;BME280;63171;50.520;30.486;2022-10-16T01:17:41;101179.09;;;7.87;60.27
45253;BME280;63171;50.520;30.486;2022-10-16T01:18:37;101186.00;;;7.88;60.18
45253;BME280;63171;50.520;30.486;2022-10-16T01:19:49;101188.84;;;7.80;60.23
45253;BME280;63171;50.520;30.486;2022-10-16T01:20:44;101189.03;;;7.74;60.30
45253;BME280;63171;50.520;30.486;2022-10-16T01:21:40;101191.97;;;7.63;60.43
45253;BME280;63171;50.520;30.486;2022-10-16T01:22:39;101192.88;;;7.62;60.67
45253;BME280;63171;50.520;30.486;2022-10-16T01:23:41;101189.88;;;7.45;60.52
45253;BME280;63171;50.520;30.486;2022-10-16T01:24:38;101196.56;;;7.54;60.74
45253;BME280;63171;50.520;30.486;2022-10-16T01:25:37;101193.94;;;7.55;61.09
45253;BME280;63171;50.520;30.486;2022-10-16T01:26:37;101196.72;;;7.49;60.94
45253;BME280;63171;50.520;30.486;2022-10-16T01:27:35;101200.34;;;7.44;60.92
45253;BME280;63171;50.520;30.486;2022-10-16T01:28:31;101195.16;;;7.42;61.39
45253;BME280;63171;50.520;30.486;2022-10-16T01:29:26;101195.22;;;7.40;61.34
45253;BME280;63171;50.520;30.486;2022-10-16T01:30:23;101201.22;;;7.43;61.60
45253;BME280;63171;50.520;30.486;2022-10-16T01:31:18;101194.97;;;7.50;61.70
45253;BME280;63171;50.520;30.486;2022-10-16T01:32:15;101196.47;;;7.57;61.92
45253;BME280;63171;50.520;30.486;2022-10-16T01:33:10;101199.28;;;7.51;61.87
45253;BME280;63171;50.520;30.486;2022-10-16T01:34:04;101201.88;;;7.51;62.04
45253;BME280;63171;50.520;30.486;2022-10-16T01:34:58;101211.72;;;7.41;62.24
45253;BME280;63171;50.520;30.486;2022-10-16T01:35:52;101202.91;;;7.45;62.06
45253;BME280;63171;50.520;30.486;2022-10-16T01:36:48;101211.13;;;7.61;62.54
45253;BME280;63171;50.520;30.486;2022-10-16T01:37:46;101205.56;;;7.73;62.57
45253;BME280;63171;50.520;30.486;2022-10-16T01:38:40;101203.34;;;7.59;62.58
45253;BME280;63171;50.520;30.486;2022-10-16T01:39:35;101207.00;;;7.54;62.61
45253;BME280;63171;50.520;30.486;2022-10-16T01:40:29;101200.25;;;7.47;62.85
45253;BME280;63171;50.520;30.486;2022-10-16T01:41:29;101213.13;;;7.53;62.89
45253;BME280;63171;50.520;30.486;2022-10-16T01:42:23;101202.75;;;7.51;63.01
45253;BME280;63171;50.520;30.486;2022-10-16T01:43:19;101211.53;;;7.47;63.13
45253;BME280;63171;50.520;30.486;2022-10-16T01:44:14;101212.47;;;7.45;63.16
45253;BME280;63171;50.520;30.486;2022-10-16T01:45:07;101204.88;;;7.37;63.38
45253;BME280;63171;50.520;30.486;2022-10-16T01:46:01;101210.00;;;7.40;63.36
45253;BME280;63171;50.520;30.486;2022-10-16T01:46:52;101210.19;;;7.32;63.46
45253;BME280;63171;50.520;30.486;2022-10-16T01:47:44;101207.88;;;7.23;63.58
45253;BME280;63171;50.520;30.486;2022-10-16T01:48:36;101210.50;;;7.22;63.63
45253;BME280;63171;50.520;30.486;2022-10-16T01:49:29;101207.88;;;7.23;63.94
45253;BME280;63171;50.520;30.486;2022-10-16T01:50:21;101215.50;;;7.29;63.87
45253;BME280;63171;50.520;30.486;2022-10-16T01:51:13;101211.19;;;7.28;64.25
45253;BME280;63171;50.520;30.486;2022-10-16T01:52:06;101204.19;;;7.30;64.14
45253;BME280;63171;50.520;30.486;2022-10-16T01:53:02;101209.56;;;7.24;64.55
45253;BME280;63171;50.520;30.486;2022-10-16T01:53:57;101204.78;;;7.40;64.46
45253;BME280;63171;50.520;30.486;2022-10-16T01:54:49;101206.81;;;7.29;64.58
45253;BME280;63171;50.520;30.486;2022-10-16T01:55:44;101207.97;;;7.19;64.79
45253;BME280;63171;50.520;30.486;2022-10-16T01:56:36;101209.38;;;7.30;64.93
45253;BME280;63171;50.520;30.486;2022-10-16T01:57:27;101207.91;;;7.22;64.94
45253;BME280;63171;50.520;30.486;2022-10-16T01:58:21;101207.91;;;7.22;65.03
45253;BME280;63171;50.520;30.486;2022-10-16T01:59:16;101213.06;;;7.23;65.15
45253;BME280;63171;50.520;30.486;2022-10-16T02:00:10;101208.19;;;7.11;65.28
45253;BME280;63171;50.520;30.486;2022-10-16T02:01:04;101212.53;;;7.10;65.73
45253;BME280;63171;50.520;30.486;2022-10-16T02:02:00;101213.31;;;7.14;65.70
45253;BME280;63171;50.520;30.486;2022-10-16T02:02:53;101212.72;;;7.03;65.54
45253;BME280;63171;50.520;30.486;2022-10-16T02:03:45;101215.06;;;7.14;65.83
45253;BME280;63171;50.520;30.486;2022-10-16T02:04:39;101214.13;;;7.16;66.01
45253;BME280;63171;50.520;30.486;2022-10-16T02:05:36;101217.50;;;7.20;66.16
45253;BME280;63171;50.520;30.486;2022-10-16T02:06:28;101213.66;;;7.33;66.43
45253;BME280;63171;50.520;30.486;2022-10-16T02:07:19;101211.03;;;7.33;66.30
45253;BME280;63171;50.520;30.486;2022-10-16T02:08:10;101212.38;;;7.49;66.69
45253;BME280;63171;50.520;30.486;2022-10-16T02:09:01;101213.75;;;7.61;66.96
45253;BME280;63171;50.520;30.486;2022-10-16T02:09:50;101217.00;;;7.69;66.85
45253;BME280;63171;50.520;30.486;2022-10-16T02:10:41;101215.78;;;7.81;67.17
45253;BME280;63171;50.520;30.486;2022-10-16T02:11:31;101220.00;;;7.85;67.10
45253;BME280;63171;50.520;30.486;2022-10-16T02:12:26;101215.28;;;7.68;67.01
45253;BME280;63171;50.520;30.486;2022-10-16T02:13:18;101213.94;;;7.55;67.05
45253;BME280;63171;50.520;30.486;2022-10-16T02:14:13;101214.44;;;7.67;67.19
45253;BME280;63171;50.520;30.486;2022-10-16T02:15:03;101213.50;;;7.70;67.30
45253;BME280;63171;50.520;30.486;2022-10-16T02:15:54;101223.34;;;7.59;67.32
45253;BME280;63171;50.520;30.486;2022-10-16T02:16:44;101215.03;;;7.46;67.13
45253;BME280;63171;50.520;30.486;2022-10-16T02:17:35;101219.28;;;7.18;66.99
45253;BME280;63171;50.520;30.486;2022-10-16T02:18:25;101209.09;;;7.10;67.24
45253;BME280;63171;50.520;30.486;2022-10-16T02:19:20;101219.91;;;6.95;67.22
45253;BME280;63171;50.520;30.486;2022-10-16T02:20:11;101221.28;;;6.74;67.11
45253;BME280;63171;50.520;30.486;2022-10-16T02:21:07;101225.47;;;6.79;67.56
45253;BME280;63171;50.520;30.486;2022-10-16T02:22:02;101223.66;;;6.83;67.80
45253;BME280;63171;50.520;30.486;2022-10-16T02:22:55;101222.00;;;6.79;67.84
45253;BME280;63171;50.520;30.486;2022-10-16T02:23:50;101225.69;;;6.72;68.06
45253;BME280;63171;50.520;30.486;2022-10-16T02:24:50;101225.84;;;6.64;68.25
45253;BME280;63171;50.520;30.486;2022-10-16T02:25:44;101224.22;;;6.60;68.24
45253;BME280;63171;50.520;30.486;2022-10-16T02:26:40;101222.59;;;6.56;68.43
45253;BME280;63171;50.520;30.486;2022-10-16T02:27:35;101221.63;;;6.60;68.95
45253;BME280;63171;50.520;30.486;2022-10-16T02:28:35;101225.97;;;6.60;69.20
45253;BME280;63171;50.520;30.486;2022-10-16T02:29:30;101221.59;;;6.62;69.06
45253;BME280;63171;50.520;30.486;2022-10-16T02:30:25;101226.66;;;6.66;69.33
45253;BME280;63171;50.520;30.486;2022-10-16T02:31:21;101228.63;;;6.58;69.49
45253;BME280;63171;50.520;30.486;2022-10-16T02:32:16;101232.06;;;6.59;69.93
45253;BME280;63171;50.520;30.486;2022-10-16T02:33:10;101230.28;;;6.61;70.03
45253;BME280;63171;50.520;30.486;2022-10-16T02:34:04;101231.22;;;6.58;69.93
45253;BME280;63171;50.520;30.486;2022-10-16T02:34:55;101224.41;;;6.52;70.13
45253;BME280;63171;50.520;30.486;2022-10-16T02:35:48;101231.31;;;6.53;70.34
45253;BME280;63171;50.520;30.486;2022-10-16T02:36:40;101231.31;;;6.53;70.50
45253;BME280;63171;50.520;30.486;2022-10-16T02:37:33;101223.41;;;6.58;70.52
45253;BME280;63171;50.520;30.486;2022-10-16T02:38:24;101227.63;;;6.62;70.68
45253;BME280;63171;50.520;30.486;2022-10-16T02:39:16;101227.84;;;6.53;70.67
45253;BME280;63171;50.520;30.486;2022-10-16T02:40:08;101227.88;;;6.51;71.11
45253;BME280;63171;50.520;30.486;2022-10-16T02:40:59;101230.47;;;6.53;70.97
45253;BME280;63171;50.520;30.486;2022-10-16T02:41:49;101229.63;;;6.51;71.37
45253;BME280;63171;50.520;30.486;2022-10-16T02:42:40;101232.97;;;6.58;71.46
45253;BME280;63171;50.520;30.486;2022-10-16T02:43:30;101232.03;;;6.60;71.36
45253;BME280;63171;50.520;30.486;2022-10-16T02:44:20;101230.41;;;6.56;71.88
45253;BME280;63171;50.520;30.486;2022-10-16T02:45:12;101233.06;;;6.55;71.83
45253;BME280;63171;50.520;30.486;2022-10-16T02:46:02;101234.13;;;6.46;71.72
45253;BME280;63171;50.520;30.486;2022-10-16T02:46:53;101236.63;;;6.49;71.82
45253;BME280;63171;50.520;30.486;2022-10-16T02:47:42;101234.19;;;6.43;72.12
45253;BME280;63171;50.520;30.486;2022-10-16T02:48:33;101232.97;;;6.58;72.10
45253;BME280;63171;50.520;30.486;2022-10-16T02:49:24;101232.81;;;6.64;72.25
45253;BME280;63171;50.520;30.486;2022-10-16T02:50:15;101238.22;;;6.56;72.29
45253;BME280;63171;50.520;30.486;2022-10-16T02:51:06;101237.50;;;6.49;72.44
45253;BME280;63171;50.520;30.486;2022-10-16T02:51:56;101229.75;;;6.46;72.64
45253;BME280;63171;50.520;30.486;2022-10-16T02:52:46;101233.91;;;6.53;72.73
45253;BME280;63171;50.520;30.486;2022-10-16T02:53:37;101230.16;;;6.65;72.76
45253;BME280;63171;50.520;30.486;2022-10-16T02:54:27;101241.22;;;6.75;72.85
45253;BME280;63171;50.520;30.486;2022-10-16T02:55:18;101232.94;;;6.59;72.82
45253;BME280;63171;50.520;30.486;2022-10-16T02:56:08;101238.19;;;6.58;73.05
45253;BME280;63171;50.520;30.486;2022-10-16T02:56:59;101233.88;;;6.57;73.31
45253;BME280;63171;50.520;30.486;2022-10-16T02:57:49;101241.44;;;6.66;73.30
45253;BME280;63171;50.520;30.486;2022-10-16T02:58:40;101236.25;;;6.64;73.46
45253;BME280;63171;50.520;30.486;2022-10-16T02:59:30;101239.03;;;6.58;73.49
45253;BME280;63171;50.520;30.486;2022-10-16T03:00:22;101234.19;;;6.78;73.61
45253;BME280;63171;50.520;30.486;2022-10-16T03:01:11;101242.66;;;6.87;73.75
45253;BME280;63171;50.520;30.486;2022-10-16T03:02:03;101239.44;;;6.77;73.94
45253;BME280;63171;50.520;30.486;2022-10-16T03:02:53;101245.50;;;6.77;74.03
45253;BME280;63171;50.520;30.486;2022-10-16T03:03:44;101241.50;;;6.63;73.63
45253;BME280;63171;50.520;30.486;2022-10-16T03:04:34;101246.19;;;6.48;73.70
45253;BME280;63171;50.520;30.486;2022-10-16T03:05:25;101239.19;;;6.50;73.89
45253;BME280;63171;50.520;30.486;2022-10-16T03:06:15;101238.94;;;6.61;74.35
45253;BME280;63171;50.520;30.486;2022-10-16T03:07:06;101241.44;;;6.66;74.51
45253;BME280;63171;50.520;30.486;2022-10-16T03:07:57;101245.28;;;6.49;74.36
45253;BME280;63171;50.520;30.486;2022-10-16T03:08:49;101245.50;;;6.42;74.20
45253;BME280;63171;50.520;30.486;2022-10-16T03:09:39;101252.44;;;6.40;74.44
45253;BME280;63171;50.520;30.486;2022-10-16T03:10:29;101251.63;;;6.38;74.69
45253;BME280;63171;50.520;30.486;2022-10-16T03:11:20;101250.94;;;6.31;74.75
45253;BME280;63171;50.520;30.486;2022-10-16T03:12:10;101247.44;;;6.32;75.13
45253;BME280;63171;50.520;30.486;2022-10-16T03:13:01;101246.31;;;6.44;75.37
45253;BME280;63171;50.520;30.486;2022-10-16T03:13:51;101253.41;;;6.36;75.12
45253;BME280;63171;50.520;30.486;2022-10-16T03:14:43;101251.28;;;6.16;75.06
45253;BME280;63171;50.520;30.486;2022-10-16T03:15:34;101254.59;;;6.22;75.62
45253;BME280;63171;50.520;30.486;2022-10-16T03:16:25;101260.41;;;6.34;75.63
45253;BME280;63171;50.520;30.486;2022-10-16T03:17:15;101260.41;;;6.34;75.60
45253;BME280;63171;50.520;30.486;2022-10-16T03:18:06;101262.44;;;6.21;75.72
45253;BME280;63171;50.520;30.486;2022-10-16T03:18:56;101262.34;;;6.24;75.91
45253;BME280;63171;50.520;30.486;2022-10-16T03:19:47;101251.19;;;6.19;75.81
45253;BME280;63171;50.520;30.486;2022-10-16T03:20:37;101258.50;;;6.03;75.88
45253;BME280;63171;50.520;30.486;2022-10-16T03:21:28;101256.63;;;6.08;76.01
45253;BME280;63171;50.520;30.486;2022-10-16T03:22:18;101260.75;;;6.18;76.22
45253;BME280;63171;50.520;30.486;2022-10-16T03:23:08;101260.78;;;6.17;76.12
45253;BME280;63171;50.520;30.486;2022-10-16T03:23:59;101258.38;;;6.08;76.63
45253;BME280;63171;50.520;30.486;2022-10-16T03:24:49;101261.00;;;6.06;76.56
45253;BME280;63171;50.520;30.486;2022-10-16T03:25:39;101263.06;;;6.32;77.01
45253;BME280;63171;50.520;30.486;2022-10-16T03:26:29;101263.13;;;6.29;76.82
45253;BME280;63171;50.520;30.486;2022-10-16T03:27:20;101263.91;;;6.33;76.77
45253;BME280;63171;50.520;30.486;2022-10-16T03:28:10;101264.84;;;6.30;76.95
45253;BME280;63171;50.520;30.486;2022-10-16T03:29:00;101260.59;;;6.25;77.00
45253;BME280;63171;50.520;30.486;2022-10-16T03:29:52;101259.47;;;6.36;77.25
45253;BME280;63171;50.520;30.486;2022-10-16T03:30:44;101263.31;;;6.59;77.50
45253;BME280;63171;50.520;30.486;2022-10-16T03:31:34;101261.03;;;6.80;77.81
45253;BME280;63171;50.520;30.486;2022-10-16T03:32:23;101265.34;;;6.83;77.54
45253;BME280;63171;50.520;30.486;2022-10-16T03:33:15;101257.84;;;6.69;77.47
45253;BME280;63171;50.520;30.486;2022-10-16T03:34:05;101262.81;;;6.78;77.59
45253;BME280;63171;50.520;30.486;2022-10-16T03:34:56;101263.16;;;6.65;77.38
45253;BME280;63171;50.520;30.486;2022-10-16T03:35:51;101261.31;;;6.33;77.07
45253;BME280;63171;50.520;30.486;2022-10-16T03:36:42;101256.44;;;6.17;77.23
45253;BME280;63171;50.520;30.486;2022-10-16T03:37:33;101262.97;;;5.95;76.73
45253;BME280;63171;50.520;30.486;2022-10-16T03:38:23;101256.94;;;5.95;77.04
45253;BME280;63171;50.520;30.486;2022-10-16T03:39:14;101257.41;;;6.12;77.33
45253;BME280;63171;50.520;30.486;2022-10-16T03:40:05;101259.16;;;6.11;77.55
45253;BME280;63171;50.520;30.486;2022-10-16T03:40:55;101262.75;;;6.06;77.20
45253;BME280;63171;50.520;30.486;2022-10-16T03:41:46;101262.84;;;6.03;77.48
45253;BME280;63171;50.520;30.486;2022-10-16T03:42:37;101264.34;;;6.11;77.47
45253;BME280;63171;50.520;30.486;2022-10-16T03:43:27;101258.41;;;6.06;77.56
45253;BME280;63171;50.520;30.486;2022-10-16T03:44:17;101264.31;;;6.13;77.82
45253;BME280;63171;50.520;30.486;2022-10-16T03:45:08;101271.34;;;6.09;77.66
45253;BME280;63171;50.520;30.486;2022-10-16T03:46:00;101261.00;;;6.06;77.88
45253;BME280;63171;50.520;30.486;2022-10-16T03:46:50;101260.88;;;6.12;77.92
45253;BME280;63171;50.520;30.486;2022-10-16T03:47:41;101261.00;;;6.06;77.74
45253;BME280;63171;50.520;30.486;2022-10-16T03:48:31;101261.72;;;6.13;78.06
45253;BME280;63171;50.520;30.486;2022-10-16T03:49:22;101270.03;;;6.30;78.28
45253;BME280;63171;50.520;30.486;2022-10-16T03:50:12;101265.81;;;6.25;78.25
45253;BME280;63171;50.520;30.486;2022-10-16T03:51:03;101260.94;;;6.09;78.13
45253;BME280;63171;50.520;30.486;2022-10-16T03:51:53;101263.34;;;6.18;78.29
45253;BME280;63171;50.520;30.486;2022-10-16T03:52:43;101262.31;;;6.26;78.36
45253;BME280;63171;50.520;30.486;2022-10-16T03:53:33;101263.97;;;6.30;78.58
45253;BME280;63171;50.520;30.486;2022-10-16T03:54:23;101262.13;;;6.35;78.55
45253;BME280;63171;50.520;30.486;2022-10-16T03:55:14;101265.72;;;6.29;78.19
45253;BME280;63171;50.520;30.486;2022-10-16T03:56:04;101263.00;;;6.34;78.63
45253;BME280;63171;50.520;30.486;2022-10-16T03:56:55;101263.97;;;6.30;78.62
45253;BME280;63171;50.520;30.486;2022-10-16T03:57:45;101258.94;;;6.22;78.67
45253;BME280;63171;50.520;30.486;2022-10-16T03:58:36;101266.72;;;6.22;78.33
45253;BME280;63171;50.520;30.486;2022-10-16T03:59:25;101261.41;;;6.28;78.50
45253;BME280;63171;50.520;30.486;2022-10-16T04:00:16;101262.28;;;6.27;78.80
45253;BME280;63171;50.520;30.486;2022-10-16T04:01:07;101269.31;;;6.23;78.56
45253;BME280;63171;50.520;30.486;2022-10-16T04:01:58;101260.53;;;6.29;78.71
45253;BME280;63171;50.520;30.486;2022-10-16T04:02:48;101265.81;;;6.25;78.60
45253;BME280;63171;50.520;30.486;2022-10-16T04:03:39;101272.69;;;6.27;78.84
45253;BME280;63171;50.520;30.486;2022-10-16T04:04:29;101261.41;;;6.28;78.76
45253;BME280;63171;50.520;30.486;2022-10-16T04:05:20;101267.47;;;6.27;78.64
45253;BME280;63171;50.520;30.486;2022-10-16T04:06:10;101270.94;;;6.29;78.82
45253;BME280;63171;50.520;30.486;2022-10-16T04:07:02;101277.09;;;6.23;78.84
45253;BME280;63171;50.520;30.486;2022-10-16T04:07:52;101269.16;;;6.31;78.87
45253;BME280;63171;50.520;30.486;2022-10-16T04:08:43;101266.63;;;6.28;78.82
45253;BME280;63171;50.520;30.486;2022-10-16T04:09:33;101271.19;;;6.17;78.56
45253;BME280;63171;50.520;30.486;2022-10-16T04:10:24;101273.03;;;6.12;78.93
45253;BME280;63171;50.520;30.486;2022-10-16T04:11:13;101273.13;;;6.07;78.83
45253;BME280;63171;50.520;30.486;2022-10-16T04:12:04;101271.28;;;6.12;78.64
45253;BME280;63171;50.520;30.486;2022-10-16T04:12:54;101274.56;;;6.20;78.89
45253;BME280;63171;50.520;30.486;2022-10-16T04:13:46;101268.78;;;6.08;78.90
45253;BME280;63171;50.520;30.486;2022-10-16T04:14:35;101272.34;;;6.04;78.76
45253;BME280;63171;50.520;30.486;2022-10-16T04:15:26;101274.13;;;6.02;78.68
45253;BME280;63171;50.520;30.486;2022-10-16T04:16:17;101266.53;;;5.89;78.63
45253;BME280;63171;50.520;30.486;2022-10-16T04:17:08;101271.06;;;5.80;78.55
45253;BME280;63171;50.520;30.486;2022-10-16T04:17:58;101265.94;;;5.77;78.79
45253;BME280;63171;50.520;30.486;2022-10-16T04:18:48;101271.84;;;5.83;78.84
45253;BME280;63171;50.520;30.486;2022-10-16T04:19:38;101272.72;;;5.84;79.04
45253;BME280;63171;50.520;30.486;2022-10-16T04:20:30;101277.00;;;5.85;78.98
45253;BME280;63171;50.520;30.486;2022-10-16T04:21:20;101274.34;;;5.89;79.06
45253;BME280;63171;50.520;30.486;2022-10-16T04:22:11;101275.22;;;5.90;79.41
45253;BME280;63171;50.520;30.486;2022-10-16T04:23:01;101276.16;;;5.84;79.37
45253;BME280;63171;50.520;30.486;2022-10-16T04:23:52;101272.75;;;5.82;79.37
45253;BME280;63171;50.520;30.486;2022-10-16T04:24:42;101278.06;;;5.76;79.41
45253;BME280;63171;50.520;30.486;2022-10-16T04:25:33;101275.25;;;5.87;79.62
45253;BME280;63171;50.520;30.486;2022-10-16T04:26:23;101279.53;;;5.91;79.73
45253;BME280;63171;50.520;30.486;2022-10-16T04:27:14;101276.94;;;5.89;79.68
45253;BME280;63171;50.520;30.486;2022-10-16T04:28:04;101276.94;;;5.91;79.56
45253;BME280;63171;50.520;30.486;2022-10-16T04:28:55;101284.63;;;5.96;80.09
45253;BME280;63171;50.520;30.486;2022-10-16T04:29:45;101282.78;;;6.01;80.07
45253;BME280;63171;50.520;30.486;2022-10-16T04:30:37;101283.81;;;5.93;79.79
45253;BME280;63171;50.520;30.486;2022-10-16T04:31:28;101286.47;;;5.90;79.83
45253;BME280;63171;50.520;30.486;2022-10-16T04:32:19;101290.91;;;5.84;79.85
45253;BME280;63171;50.520;30.486;2022-10-16T04:33:09;101288.44;;;5.78;79.82
45253;BME280;63171;50.520;30.486;2022-10-16T04:34:00;101290.69;;;5.96;80.18
45253;BME280;63171;50.520;30.486;2022-10-16T04:34:50;101289.84;;;5.96;80.29
45253;BME280;63171;50.520;30.486;2022-10-16T04:35:41;101290.50;;;6.05;80.24
45253;BME280;63171;50.520;30.486;2022-10-16T04:36:30;101291.75;;;6.29;80.43
45253;BME280;63171;50.520;30.486;2022-10-16T04:37:23;101295.31;;;6.23;80.47